Meteo Giornale » Osservazioni meteo Italia » Grazzanise

ore: 15:55 - Osservazioni Meteo Grazzanise
Lat. 41° 3' N Lon. 14° 4' E Alt. 9 metri s.l.m.

nuvoloso Europe/Rome

28 °C

Nuvoloso

Temp. 24 Ore

12 °C

29 °C

Ovest

22.2 Km/h

Dew point 12 °C

Umidità 37 %

Visibilità  10 Km

Il sole sorge alle ore 05:33

Il sole tramonta alle ore 20:28

Data e Ora Cielo e Fenomeni T °C DP °C Um. % Pres. hPa Vis. km Vento km/h
Oggi h: 15:55 nuvoloso Nuvoloso 28 12 37 1017 10 O 22.2
Oggi h: 14:55 nuvoloso Nuvoloso 29 12 35 1017 10 O 18.5
Oggi h: 13:55 nuvoloso Nuvoloso 29 12 35 1018 10 O 14.8
Oggi h: 12:55 poco_nuvoloso Poco Nuvoloso 28 10 32 1019 10 E 14.8
Oggi h: 11:55 poco_nuvoloso Poco Nuvoloso 28 10 32 1019 10 E/SE 7.4
Oggi h: 10:55 poco_nuvoloso Poco Nuvoloso 26 10 36 1019 10 NE 9.3
Oggi h: 09:55 sereno Sereno 25 12 44 1019 10 NE 9.3
Oggi h: 08:55 sereno Sereno 24 15 57 1019 10 NE 9.3
Oggi h: 07:55 sereno Sereno 20 15 72 1019 10 E/NE 9.3
Oggi h: 06:55 sereno Sereno 14 12 87 1019 10 N 5.5
Oggi h: 05:55 sereno Sereno 12 10 87 1018 10 E 7.4
Oggi h: 04:55 sereno Sereno 14 12 87 1018 10 N 5.5
Oggi h: 03:55 sereno Sereno 15 13 87 1019 10 N 5.5
Oggi h: 02:55 sereno Sereno 15 14 93 1019 10 N 3.7
Oggi h: 01:55 sereno Sereno 15 14 93 1019 10 N 3.7
Oggi h: 00:55 sereno Sereno 15 14 93 1019 10 N 3.7
Ieri h: 23:55 sereno Sereno 17 16 93 1018 10 N/NO 7.4
Ieri h: 22:55 sereno Sereno 17 16 93 1018 10 N 3.7
Ieri h: 21:55 sereno Sereno 20 17 82 1018 10 SO 9.3
Ieri h: 20:55 nuvoloso Nuvoloso 21 17 77 1017 10 O/SO 7.4
Ieri h: 19:55 nuvoloso Nuvoloso 23 17 68 1017 10 O 7.4
Ieri h: 18:55 nuvoloso Nuvoloso 23 16 64 1016 10 O 20.3
Ieri h: 17:55 nuvoloso Nuvoloso 23 16 64 1016 10 O 24
Ieri h: 16:55 nuvoloso Nuvoloso 24 17 64 1016 10 O 25.9